Mc Indoe Falls, Vermont
Current Conditions -  °F | °C
As of 6:51 AM on Monday 26 Jan 2015 (Local Time) from KMPV Reporting Station
Clear Clear  
Wind Chill: -23°   Ceiling: Unl
Heat Index: -23°   Visibility: 9mi
Dew Point: -26°   Wind: 3mph
Humidity: 82%   Direction: 60°ENE
Pressure: 30.12"   Gusts: NA
Location:  44.2588°N, 72.0585°W
Report Text: KMPV 261151Z AUTO 06003KT 9SM CLR M23/M26 A3012 RMK AO2 SLP236 I1000 I6000 T12331256 11183 21244 53013
Loading
Personal Weather Stations






























Interactive Weather Map New forecast layout! Learn more

10-Day Weather Forecast

Advertisements
Track Severe Weather on mobile